Time;durP1;ratioP1;P1;durP2;ratioP2;P2;SDS_P1;SDS_P2;PMS_P1;PMS_P2;Temp;Humidity;BMP_temperature;BMP_pressure;BME280_temperature;BME280_humidity;BME280_pressure;Samples;Min_cycle;Max_cycle;Signal;HPM_P1;HPM_P2
2024/04/07 00:02:12;;;;;;;;;;;16.90;99.90;;;;;;5053496;28;19917;-77
2024/04/07 00:04:37;;;;;;;;;;;16.90;99.90;;;;;;5054090;28;19909;-77
2024/04/07 00:07:03;;;;;;;;;;;16.80;99.90;;;;;;5053732;28;19908;-77
2024/04/07 00:09:29;;;;;;;;;;;16.80;99.90;;;;;;5054102;28;19951;-77
2024/04/07 00:11:55;;;;;;;;;;;16.60;99.90;;;;;;5053880;28;19908;-77
2024/04/07 00:14:21;;;;;;;;;;;16.60;99.90;;;;;;5054350;28;20358;-77
2024/04/07 00:16:47;;;;;;;;;;;16.70;99.90;;;;;;5039999;28;19921;-77
2024/04/07 00:19:13;;;;;;;;;;;16.60;99.90;;;;;;5033998;28;19909;-77
2024/04/07 00:21:40;;;;;;;;;;;16.50;99.90;;;;;;5045025;28;20365;-72
2024/04/07 00:24:06;;;;;;;;;;;16.50;99.90;;;;;;5045969;28;19912;-72
2024/04/07 00:26:32;;;;;;;;;;;16.50;99.90;;;;;;5033342;28;19908;-72
2024/04/07 00:28:57;;;;;;;;;;;16.50;99.90;;;;;;5033925;28;19909;-73
2024/04/07 00:31:23;;;;;;;;;;;16.50;99.90;;;;;;5043502;28;20373;-72
2024/04/07 00:33:49;;;;;;;;;;;16.50;99.90;;;;;;5053179;28;20285;-72
2024/04/07 00:36:15;;;;;;;;;;;16.50;99.90;;;;;;5053262;28;19909;-72
2024/04/07 00:38:41;;;;;;;;;;;16.50;99.90;;;;;;5053483;28;19920;-73
2024/04/07 00:41:07;;;;;;;;;;;16.50;99.90;;;;;;5053039;28;19912;-72
2024/04/07 00:43:33;;;;;;;;;;;16.40;99.90;;;;;;5053086;28;19905;-73
2024/04/07 00:45:59;;;;;;;;;;;16.40;99.90;;;;;;5051975;28;19919;-72
2024/04/07 00:48:25;;;;;;;;;;;16.50;99.90;;;;;;5053427;28;20376;-74
2024/04/07 00:50:52;;;;;;;;;;;16.40;99.90;;;;;;5052879;28;19909;-75
2024/04/07 00:53:18;;;;;;;;;;;16.40;99.90;;;;;;5053351;28;19967;-74
2024/04/07 00:55:44;;;;;;;;;;;16.30;99.90;;;;;;5052587;28;19908;-74
2024/04/07 00:58:11;;;;;;;;;;;16.30;99.90;;;;;;5052553;28;19916;-74
2024/04/07 01:00:37;;;;;;;;;;;16.30;99.90;;;;;;5052282;28;19916;-74
2024/04/07 01:03:03;;;;;;;;;;;16.30;99.90;;;;;;5052345;28;19916;-75
2024/04/07 01:05:41;;;;;;;;;;;16.30;99.90;;;;;;5052577;28;19912;-75
2024/04/07 01:08:07;;;;;;;;;;;16.30;99.90;;;;;;5053026;28;19924;-75
2024/04/07 01:10:33;;;;;;;;;;;16.20;99.90;;;;;;5051665;28;19905;-74
2024/04/07 01:12:59;;;;;;;;;;;16.20;99.90;;;;;;5052017;28;19908;-74
2024/04/07 01:15:25;;;;;;;;;;;16.30;99.90;;;;;;5052188;28;19908;-74
2024/04/07 01:17:51;;;;;;;;;;;16.20;99.90;;;;;;5052338;28;19940;-74
2024/04/07 01:20:17;;;;;;;;;;;16.10;99.90;;;;;;5052526;28;19909;-75
2024/04/07 01:22:44;;;;;;;;;;;16.00;99.90;;;;;;5053479;28;19920;-80
2024/04/07 01:25:11;;;;;;;;;;;16.00;99.90;;;;;;5034689;28;19932;-77
2024/04/07 01:27:37;;;;;;;;;;;16.00;99.90;;;;;;5032928;28;19909;-77
2024/04/07 01:30:03;;;;;;;;;;;16.10;99.90;;;;;;5032348;28;19912;-76
2024/04/07 01:32:29;;;;;;;;;;;16.00;99.90;;;;;;5051503;28;19909;-76
2024/04/07 01:34:55;;;;;;;;;;;16.10;99.90;;;;;;5047074;28;19916;-77
2024/04/07 01:37:21;;;;;;;;;;;16.10;99.90;;;;;;5050434;28;19920;-77
2024/04/07 01:39:47;;;;;;;;;;;16.00;99.90;;;;;;5052348;28;19915;-77
2024/04/07 01:42:12;;;;;;;;;;;16.00;99.90;;;;;;5051990;28;19916;-77
2024/04/07 01:44:38;;;;;;;;;;;16.00;99.90;;;;;;5052860;28;19912;-77
2024/04/07 01:47:04;;;;;;;;;;;16.00;99.90;;;;;;5051897;28;20415;-77
2024/04/07 01:49:31;;;;;;;;;;;16.10;99.90;;;;;;5052510;28;19932;-76
2024/04/07 01:51:56;;;;;;;;;;;16.00;99.90;;;;;;5051997;28;20285;-77
2024/04/07 01:54:22;;;;;;;;;;;16.00;99.90;;;;;;5052346;28;19905;-77
2024/04/07 01:56:48;;;;;;;;;;;16.00;99.90;;;;;;5052178;28;19913;-77
2024/04/07 01:59:14;;;;;;;;;;;16.00;99.90;;;;;;5052432;28;19905;-77
2024/04/07 02:01:42;;;;;;;;;;;16.00;99.90;;;;;;5050729;28;19922;-77
2024/04/07 02:04:08;;;;;;;;;;;15.90;99.90;;;;;;5033042;28;19927;-77
2024/04/07 02:06:34;;;;;;;;;;;15.90;99.90;;;;;;5027724;28;19909;-77
2024/04/07 02:08:59;;;;;;;;;;;15.90;99.90;;;;;;5030439;28;19909;-77
2024/04/07 02:11:25;;;;;;;;;;;15.90;99.90;;;;;;5040815;28;19905;-77
2024/04/07 02:13:51;;;;;;;;;;;15.90;99.90;;;;;;5050475;28;19916;-77
2024/04/07 02:16:17;;;;;;;;;;;15.90;99.90;;;;;;5043676;28;19920;-77
2024/04/07 02:18:43;;;;;;;;;;;15.90;99.90;;;;;;5054607;28;19924;-77
2024/04/07 02:21:09;;;;;;;;;;;15.80;99.90;;;;;;5054471;28;19912;-77
2024/04/07 02:23:35;;;;;;;;;;;15.80;99.90;;;;;;5045602;28;20401;-77
2024/04/07 02:26:01;;;;;;;;;;;15.80;99.90;;;;;;5034475;28;19920;-74
2024/04/07 02:28:27;;;;;;;;;;;15.80;99.90;;;;;;5034593;28;19909;-75
2024/04/07 02:30:53;;;;;;;;;;;15.70;99.90;;;;;;5033793;28;19909;-74
2024/04/07 02:33:19;;;;;;;;;;;15.80;99.90;;;;;;5034329;28;19920;-75
2024/04/07 02:35:45;;;;;;;;;;;15.70;99.90;;;;;;5039703;28;19931;-74
2024/04/07 02:38:11;;;;;;;;;;;15.80;99.90;;;;;;5036906;28;19917;-74
2024/04/07 02:40:37;;;;;;;;;;;15.70;99.90;;;;;;5038122;28;20381;-74
2024/04/07 02:43:03;;;;;;;;;;;15.60;99.90;;;;;;5055819;28;19915;-74
2024/04/07 02:48:14;;;;;;;;;;;15.60;99.90;;;;;;5057639;28;19915;-75
2024/04/07 02:50:40;;;;;;;;;;;15.60;99.90;;;;;;5055245;28;19905;-74
2024/04/07 02:53:07;;;;;;;;;;;15.50;99.90;;;;;;5055424;28;19908;-74
2024/04/07 02:55:33;;;;;;;;;;;15.50;99.90;;;;;;5054486;28;19909;-74
2024/04/07 02:57:59;;;;;;;;;;;15.50;99.90;;;;;;5055507;28;19923;-74
2024/04/07 03:00:25;;;;;;;;;;;15.50;99.90;;;;;;5054539;28;19916;-74
2024/04/07 03:02:51;;;;;;;;;;;15.50;99.90;;;;;;5055411;28;19909;-74
2024/04/07 03:05:17;;;;;;;;;;;15.40;99.90;;;;;;5054914;28;19916;-74
2024/04/07 03:07:43;;;;;;;;;;;15.30;99.90;;;;;;5054792;28;19916;-73
2024/04/07 03:10:10;;;;;;;;;;;15.30;99.90;;;;;;5054850;28;20280;-74
2024/04/07 03:12:36;;;;;;;;;;;15.30;99.90;;;;;;5054705;28;19915;-73
2024/04/07 03:15:03;;;;;;;;;;;15.30;99.90;;;;;;5055215;28;19905;-73
2024/04/07 03:17:29;;;;;;;;;;;15.30;99.90;;;;;;5054077;28;20876;-74
2024/04/07 03:19:56;;;;;;;;;;;15.20;99.90;;;;;;5054842;28;19912;-74
2024/04/07 03:22:21;;;;;;;;;;;15.20;99.90;;;;;;5054039;28;19916;-73
2024/04/07 03:24:48;;;;;;;;;;;15.20;99.90;;;;;;5042206;28;20369;-74
2024/04/07 03:27:14;;;;;;;;;;;15.20;99.90;;;;;;5034238;28;19909;-73
2024/04/07 03:29:40;;;;;;;;;;;15.20;99.90;;;;;;5036247;28;20284;-78
2024/04/07 03:32:06;;;;;;;;;;;15.20;99.90;;;;;;5049966;28;19919;-78
2024/04/07 03:34:32;;;;;;;;;;;15.20;99.90;;;;;;5053550;28;19912;-78
2024/04/07 03:36:58;;;;;;;;;;;15.10;99.90;;;;;;5054068;28;20007;-79
2024/04/07 03:39:24;;;;;;;;;;;15.10;99.90;;;;;;5054855;28;19909;-78
2024/04/07 03:41:50;;;;;;;;;;;15.00;99.90;;;;;;5054107;28;19916;-78
2024/04/07 03:44:18;;;;;;;;;;;15.10;99.90;;;;;;5054730;28;19911;-79
2024/04/07 03:46:43;;;;;;;;;;;15.10;99.90;;;;;;5053688;28;19913;-78
2024/04/07 03:49:09;;;;;;;;;;;15.20;99.90;;;;;;5052820;28;19928;-78
2024/04/07 03:51:35;;;;;;;;;;;15.30;99.90;;;;;;5053822;28;19916;-78
2024/04/07 03:54:01;;;;;;;;;;;15.30;99.90;;;;;;5053054;28;19904;-78
2024/04/07 03:56:28;;;;;;;;;;;15.30;99.90;;;;;;5053798;28;19916;-79
2024/04/07 03:58:53;;;;;;;;;;;15.30;99.90;;;;;;5052904;28;19920;-78
2024/04/07 04:01:19;;;;;;;;;;;15.30;99.90;;;;;;5053394;28;19916;-78
2024/04/07 04:03:46;;;;;;;;;;;15.30;99.90;;;;;;5054107;28;19912;-78
2024/04/07 04:06:12;;;;;;;;;;;15.20;99.90;;;;;;5053831;28;19909;-78
2024/04/07 04:08:38;;;;;;;;;;;15.30;99.90;;;;;;5054310;28;19911;-78
2024/04/07 04:11:09;;;;;;;;;;;15.30;99.90;;;;;;5053920;28;19909;-78
2024/04/07 04:13:35;;;;;;;;;;;15.30;99.90;;;;;;5054076;28;19909;-78
2024/04/07 04:16:01;;;;;;;;;;;15.30;99.90;;;;;;5053188;28;19913;-79
2024/04/07 04:18:27;;;;;;;;;;;15.30;99.90;;;;;;5053538;28;19916;-79
2024/04/07 04:20:53;;;;;;;;;;;15.30;99.90;;;;;;5053393;28;20281;-78
2024/04/07 04:23:19;;;;;;;;;;;15.20;99.90;;;;;;5052771;28;19923;-79
2024/04/07 04:25:51;;;;;;;;;;;15.20;99.90;;;;;;5033482;28;20370;-79
2024/04/07 04:28:18;;;;;;;;;;;15.30;99.90;;;;;;5033783;28;19909;-78
2024/04/07 04:30:53;;;;;;;;;;;15.20;99.90;;;;;;5038019;28;19913;-78
2024/04/07 04:33:22;;;;;;;;;;;15.20;99.90;;;;;;5053185;28;19928;-79
2024/04/07 04:35:49;;;;;;;;;;;15.30;99.90;;;;;;5053109;28;19918;-77
2024/04/07 04:38:15;;;;;;;;;;;15.30;99.90;;;;;;5051535;28;19913;-79
2024/04/07 04:40:41;;;;;;;;;;;15.30;99.90;;;;;;5053143;28;19915;-79
2024/04/07 04:43:07;;;;;;;;;;;15.30;99.90;;;;;;5052227;28;20045;-79
2024/04/07 04:45:33;;;;;;;;;;;15.30;99.90;;;;;;5052420;28;19913;-79
2024/04/07 04:47:59;;;;;;;;;;;15.30;99.90;;;;;;5053040;28;19905;-79
2024/04/07 04:50:26;;;;;;;;;;;15.30;99.90;;;;;;5053056;28;19948;-79
2024/04/07 04:52:51;;;;;;;;;;;15.30;99.90;;;;;;5052364;28;19912;-78
2024/04/07 04:55:17;;;;;;;;;;;15.30;99.90;;;;;;5052791;28;19909;-79
2024/04/07 04:57:46;;;;;;;;;;;15.30;99.90;;;;;;5051055;28;19909;-79
2024/04/07 05:00:14;;;;;;;;;;;15.40;99.90;;;;;;5052149;28;19908;-77
2024/04/07 05:02:41;;;;;;;;;;;15.40;99.90;;;;;;5052801;28;19939;-74
2024/04/07 05:05:09;;;;;;;;;;;15.30;99.90;;;;;;5052666;28;19904;-73
2024/04/07 05:07:36;;;;;;;;;;;15.40;99.90;;;;;;5033099;28;19909;-74
2024/04/07 05:10:03;;;;;;;;;;;15.40;99.90;;;;;;5033259;28;19905;-73
2024/04/07 05:12:29;;;;;;;;;;;15.40;99.90;;;;;;5033156;28;19913;-73
2024/04/07 05:14:55;;;;;;;;;;;15.30;99.90;;;;;;5033065;28;19905;-73
2024/04/07 05:17:20;;;;;;;;;;;15.30;99.90;;;;;;5045972;28;19927;-73
2024/04/07 05:19:49;;;;;;;;;;;15.30;99.90;;;;;;5052342;28;20321;-74
2024/04/07 05:22:15;;;;;;;;;;;15.20;99.90;;;;;;5052235;28;20273;-74
2024/04/07 05:24:40;;;;;;;;;;;15.20;99.90;;;;;;5041050;28;19905;-73
2024/04/07 05:27:06;;;;;;;;;;;15.10;99.90;;;;;;5032561;28;19913;-74
2024/04/07 05:29:32;;;;;;;;;;;15.20;99.90;;;;;;5032910;28;19909;-74
2024/04/07 05:31:58;;;;;;;;;;;15.10;99.90;;;;;;5046542;28;20373;-73
2024/04/07 05:34:27;;;;;;;;;;;15.00;99.90;;;;;;5052724;28;19909;-73
2024/04/07 05:36:53;;;;;;;;;;;15.00;99.90;;;;;;5052239;28;19909;-73
2024/04/07 05:39:19;;;;;;;;;;;14.90;99.90;;;;;;5052569;28;20380;-73
2024/04/07 05:41:45;;;;;;;;;;;15.00;99.90;;;;;;5052730;28;19916;-74
2024/04/07 05:44:10;;;;;;;;;;;14.90;99.90;;;;;;5052690;28;19905;-74
2024/04/07 05:46:36;;;;;;;;;;;14.90;99.90;;;;;;5050568;28;19913;-74
2024/04/07 05:49:02;;;;;;;;;;;15.00;99.90;;;;;;5054287;28;19953;-74
2024/04/07 05:51:28;;;;;;;;;;;14.90;99.90;;;;;;5056364;28;19920;-74
2024/04/07 05:53:54;;;;;;;;;;;15.00;99.90;;;;;;5056805;28;20302;-73
2024/04/07 05:56:20;;;;;;;;;;;14.80;99.90;;;;;;5056075;28;19916;-74
2024/04/07 05:58:46;;;;;;;;;;;14.80;99.90;;;;;;5056589;28;19913;-74
2024/04/07 06:01:12;;;;;;;;;;;14.80;99.90;;;;;;5053195;28;19913;-73
2024/04/07 06:03:38;;;;;;;;;;;14.60;99.90;;;;;;5056586;28;19908;-73
2024/04/07 06:06:04;;;;;;;;;;;14.80;99.90;;;;;;5055704;28;19921;-78
2024/04/07 06:08:30;;;;;;;;;;;14.70;99.90;;;;;;5054926;28;19912;-78
2024/04/07 06:10:56;;;;;;;;;;;14.80;99.90;;;;;;5054713;28;19908;-79
2024/04/07 06:13:21;;;;;;;;;;;14.80;99.90;;;;;;5056244;28;20312;-78
2024/04/07 06:15:47;;;;;;;;;;;14.80;99.90;;;;;;5055162;28;19942;-78
2024/04/07 06:18:13;;;;;;;;;;;14.70;99.90;;;;;;5056007;28;19912;-78
2024/04/07 06:20:39;;;;;;;;;;;14.70;99.90;;;;;;5055917;28;19908;-78
2024/04/07 06:23:05;;;;;;;;;;;14.80;99.90;;;;;;5054639;28;19916;-78
2024/04/07 06:25:31;;;;;;;;;;;14.70;99.90;;;;;;5036849;28;19924;-79
2024/04/07 06:27:57;;;;;;;;;;;14.60;99.90;;;;;;5035885;28;19951;-78
2024/04/07 06:30:23;;;;;;;;;;;14.60;99.90;;;;;;5036886;28;19908;-78
2024/04/07 06:32:49;;;;;;;;;;;14.50;99.90;;;;;;5055869;28;20265;-79
2024/04/07 06:35:15;;;;;;;;;;;14.70;99.90;;;;;;5055176;28;19916;-78
2024/04/07 06:37:41;;;;;;;;;;;14.80;99.90;;;;;;5055549;28;19931;-78
2024/04/07 06:40:07;;;;;;;;;;;14.90;99.90;;;;;;5055675;28;20353;-78
2024/04/07 06:42:33;;;;;;;;;;;14.80;99.90;;;;;;5055453;28;19905;-78
2024/04/07 06:44:59;;;;;;;;;;;14.80;99.90;;;;;;5055286;28;20258;-79
2024/04/07 06:47:26;;;;;;;;;;;14.80;99.90;;;;;;5054042;28;19916;-78
2024/04/07 06:49:52;;;;;;;;;;;14.80;99.90;;;;;;5055579;28;20349;-78
2024/04/07 06:52:21;;;;;;;;;;;14.90;99.90;;;;;;5055140;28;20345;-78
2024/04/07 06:54:47;;;;;;;;;;;15.00;99.90;;;;;;5055402;28;19916;-79
2024/04/07 06:57:13;;;;;;;;;;;15.00;99.90;;;;;;5055001;28;19904;-78
2024/04/07 06:59:39;;;;;;;;;;;15.10;99.90;;;;;;5052897;28;19916;-79
2024/04/07 07:02:05;;;;;;;;;;;15.10;99.90;;;;;;5053842;28;20365;-79
2024/04/07 07:04:31;;;;;;;;;;;15.10;99.90;;;;;;5054142;28;19909;-78
2024/04/07 07:06:58;;;;;;;;;;;15.20;99.90;;;;;;5054803;28;19905;-79
2024/04/07 07:09:24;;;;;;;;;;;15.30;99.90;;;;;;5055010;28;19909;-78
2024/04/07 07:11:50;;;;;;;;;;;15.30;99.90;;;;;;5054896;28;20250;-75
2024/04/07 07:14:16;;;;;;;;;;;15.40;99.90;;;;;;5054929;28;19967;-73
2024/04/07 07:16:42;;;;;;;;;;;15.40;99.90;;;;;;5054414;28;19913;-73
2024/04/07 07:19:08;;;;;;;;;;;15.50;99.90;;;;;;5055184;28;19928;-74
2024/04/07 07:21:33;;;;;;;;;;;15.40;99.90;;;;;;5054408;28;19931;-73
2024/04/07 07:23:59;;;;;;;;;;;15.30;99.90;;;;;;5048860;28;19916;-73
2024/04/07 07:26:25;;;;;;;;;;;15.40;99.90;;;;;;5034754;28;19909;-73
2024/04/07 07:28:51;;;;;;;;;;;15.50;99.90;;;;;;5034858;28;19904;-73
2024/04/07 07:31:19;;;;;;;;;;;15.30;99.90;;;;;;5043526;28;19913;-73
2024/04/07 07:33:45;;;;;;;;;;;15.50;99.90;;;;;;5054667;28;19912;-73
2024/04/07 07:36:11;;;;;;;;;;;15.60;99.90;;;;;;5053513;28;19991;-73
2024/04/07 07:38:37;;;;;;;;;;;15.50;99.90;;;;;;5054282;28;19913;-73
2024/04/07 07:41:03;;;;;;;;;;;15.60;99.90;;;;;;5054431;28;19909;-74
2024/04/07 07:43:30;;;;;;;;;;;15.50;99.90;;;;;;5054746;28;19909;-73
2024/04/07 07:45:56;;;;;;;;;;;15.40;99.90;;;;;;5053007;28;19913;-73
2024/04/07 07:48:22;;;;;;;;;;;15.30;99.90;;;;;;5054401;28;19905;-74
2024/04/07 07:50:48;;;;;;;;;;;15.40;99.90;;;;;;5054129;28;19912;-74
2024/04/07 07:53:14;;;;;;;;;;;15.40;99.90;;;;;;5054533;28;20341;-73
2024/04/07 07:55:40;;;;;;;;;;;15.50;99.90;;;;;;5053760;28;19909;-73
2024/04/07 07:58:06;;;;;;;;;;;15.60;99.90;;;;;;5053578;28;19909;-73
2024/04/07 08:00:32;;;;;;;;;;;15.60;99.90;;;;;;5053015;28;19979;-73
2024/04/07 08:02:59;;;;;;;;;;;15.60;99.90;;;;;;5054320;28;19909;-74
2024/04/07 08:05:25;;;;;;;;;;;15.60;99.90;;;;;;5053289;28;20384;-73
2024/04/07 08:07:51;;;;;;;;;;;15.80;99.90;;;;;;5054167;28;19905;-73
2024/04/07 08:10:17;;;;;;;;;;;15.80;99.90;;;;;;5053646;28;20285;-73
2024/04/07 08:12:43;;;;;;;;;;;15.80;99.90;;;;;;5053115;28;19908;-73
2024/04/07 08:15:11;;;;;;;;;;;15.70;99.90;;;;;;5053182;28;20451;-73
2024/04/07 08:17:37;;;;;;;;;;;15.80;99.90;;;;;;5053213;28;19911;-74
2024/04/07 08:20:04;;;;;;;;;;;15.90;99.90;;;;;;5053656;28;19917;-78
2024/04/07 08:22:30;;;;;;;;;;;16.00;99.90;;;;;;5051881;28;20424;-79
2024/04/07 08:24:56;;;;;;;;;;;16.10;99.90;;;;;;5039426;28;19916;-79
2024/04/07 08:27:22;;;;;;;;;;;16.20;99.90;;;;;;5031940;28;19909;-79
2024/04/07 08:29:48;;;;;;;;;;;16.30;99.90;;;;;;5034042;28;20289;-78
2024/04/07 08:32:14;;;;;;;;;;;16.50;99.90;;;;;;5049686;28;19913;-78
2024/04/07 08:34:40;;;;;;;;;;;16.40;99.90;;;;;;5053502;28;19905;-78
2024/04/07 08:37:07;;;;;;;;;;;16.30;99.90;;;;;;5053227;28;19909;-78
2024/04/07 08:39:33;;;;;;;;;;;16.30;99.90;;;;;;5052751;28;20311;-78
2024/04/07 08:42:00;;;;;;;;;;;16.40;99.90;;;;;;5053238;28;19919;-79
2024/04/07 08:44:26;;;;;;;;;;;16.40;99.90;;;;;;5053008;28;19905;-79
2024/04/07 08:46:52;;;;;;;;;;;16.50;99.90;;;;;;5052551;28;19924;-79
2024/04/07 08:49:18;;;;;;;;;;;16.60;99.90;;;;;;5052110;28;19909;-78
2024/04/07 08:51:44;;;;;;;;;;;16.60;99.90;;;;;;5053048;28;20289;-78
2024/04/07 08:54:10;;;;;;;;;;;16.70;99.90;;;;;;5051717;28;19905;-79
2024/04/07 08:56:37;;;;;;;;;;;16.70;99.90;;;;;;5051673;28;19909;-79
2024/04/07 08:59:05;;;;;;;;;;;16.80;99.90;;;;;;5053107;28;19956;-79
2024/04/07 09:01:31;;;;;;;;;;;16.80;99.90;;;;;;5051087;28;19919;-79
2024/04/07 09:03:59;;;;;;;;;;;16.80;99.90;;;;;;5052839;28;19905;-78
2024/04/07 09:06:26;;;;;;;;;;;16.80;99.90;;;;;;5052032;28;19909;-80
2024/04/07 09:08:53;;;;;;;;;;;16.80;99.90;;;;;;5052695;28;19912;-79
2024/04/07 09:11:18;;;;;;;;;;;16.70;99.90;;;;;;5051018;28;19912;-78
2024/04/07 09:13:44;;;;;;;;;;;16.90;99.90;;;;;;5053366;28;20266;-78
2024/04/07 09:16:10;;;;;;;;;;;16.90;99.90;;;;;;5051995;28;19924;-78
2024/04/07 09:18:36;;;;;;;;;;;16.90;99.90;;;;;;5051772;28;19915;-78
2024/04/07 09:21:02;;;;;;;;;;;16.90;99.90;;;;;;5051237;28;19932;-79
2024/04/07 09:23:28;;;;;;;;;;;16.90;99.90;;;;;;5048786;28;20266;-73
2024/04/07 09:25:56;;;;;;;;;;;16.90;99.90;;;;;;5032667;28;19921;-73
2024/04/07 09:28:21;;;;;;;;;;;16.90;99.90;;;;;;5032989;28;20512;-73
2024/04/07 09:30:48;;;;;;;;;;;16.80;99.90;;;;;;5035927;28;19920;-72
2024/04/07 09:33:14;;;;;;;;;;;16.90;99.90;;;;;;5052629;28;19912;-73
2024/04/07 09:35:40;;;;;;;;;;;16.90;99.90;;;;;;5046010;28;19909;-73
2024/04/07 09:38:06;;;;;;;;;;;16.90;99.90;;;;;;5052136;28;20299;-73
2024/04/07 09:40:32;;;;;;;;;;;16.90;99.90;;;;;;5052182;28;19921;-72
2024/04/07 09:42:58;;;;;;;;;;;16.90;99.90;;;;;;5051395;28;19904;-74
2024/04/07 09:45:24;;;;;;;;;;;17.00;99.90;;;;;;5050321;28;19908;-73
2024/04/07 09:47:52;;;;;;;;;;;17.10;99.90;;;;;;5051422;28;20384;-72
2024/04/07 09:50:24;;;;;;;;;;;17.10;99.90;;;;;;5050880;28;19916;-73
2024/04/07 09:52:51;;;;;;;;;;;17.10;99.90;;;;;;5051001;28;19931;-73
2024/04/07 09:55:17;;;;;;;;;;;17.10;99.90;;;;;;5050871;28;19905;-73
2024/04/07 09:57:43;;;;;;;;;;;17.10;99.90;;;;;;5052391;28;19905;-73
2024/04/07 10:00:12;;;;;;;;;;;17.20;99.90;;;;;;5050571;28;19917;-73
2024/04/07 10:02:38;;;;;;;;;;;17.30;99.90;;;;;;5011733;28;19916;-72
2024/04/07 10:05:05;;;;;;;;;;;17.30;99.90;;;;;;5012967;28;20355;-73
2024/04/07 10:07:34;;;;;;;;;;;17.40;99.90;;;;;;5050876;28;19916;-73
2024/04/07 10:10:04;;;;;;;;;;;17.40;99.90;;;;;;5034752;28;19911;-73
2024/04/07 10:12:30;;;;;;;;;;;17.40;99.90;;;;;;5051880;28;19913;-72
2024/04/07 10:14:56;;;;;;;;;;;17.40;99.90;;;;;;5052307;28;19960;-73
2024/04/07 10:17:22;;;;;;;;;;;17.30;99.90;;;;;;5051294;28;19920;-73
2024/04/07 10:19:49;;;;;;;;;;;17.20;99.90;;;;;;5051045;28;19924;-74
2024/04/07 10:22:17;;;;;;;;;;;17.20;99.90;;;;;;5050696;28;19917;-73
2024/04/07 10:24:52;;;;;;;;;;;17.20;99.90;;;;;;5039479;28;19909;-77
2024/04/07 10:27:22;;;;;;;;;;;17.30;99.90;;;;;;5031531;28;19932;-77
2024/04/07 10:29:55;;;;;;;;;;;17.30;99.90;;;;;;5032341;28;19912;-78
2024/04/07 10:32:33;;;;;;;;;;;17.50;99.90;;;;;;5048404;28;19909;-78
2024/04/07 10:35:00;;;;;;;;;;;17.60;99.90;;;;;;5051918;28;19909;-77
2024/04/07 10:37:26;;;;;;;;;;;17.70;99.90;;;;;;5054745;28;19908;-78
2024/04/07 10:39:52;;;;;;;;;;;17.80;99.90;;;;;;5054493;28;19923;-77
2024/04/07 10:42:17;;;;;;;;;;;17.80;99.90;;;;;;5055422;28;19917;-78
2024/04/07 10:44:43;;;;;;;;;;;17.90;99.90;;;;;;5055496;28;19905;-78
2024/04/07 10:47:09;;;;;;;;;;;17.90;99.90;;;;;;5054820;28;19917;-77
2024/04/07 10:49:36;;;;;;;;;;;17.80;99.90;;;;;;5054005;28;20430;-77
2024/04/07 10:52:02;;;;;;;;;;;17.80;99.90;;;;;;5055326;28;19915;-78
2024/04/07 10:54:31;;;;;;;;;;;17.90;99.90;;;;;;5058631;28;19908;-78
2024/04/07 10:56:57;;;;;;;;;;;17.80;99.90;;;;;;5055343;28;19908;-78
2024/04/07 10:59:23;;;;;;;;;;;18.00;99.90;;;;;;5055310;28;19958;-77
2024/04/07 11:01:49;;;;;;;;;;;18.00;99.90;;;;;;5054512;28;19913;-78
2024/04/07 11:04:15;;;;;;;;;;;17.90;99.90;;;;;;5054928;28;20269;-77
2024/04/07 11:06:41;;;;;;;;;;;17.80;99.90;;;;;;5054774;28;19908;-78
2024/04/07 11:09:07;;;;;;;;;;;17.70;99.90;;;;;;5054035;28;19905;-77
2024/04/07 11:11:33;;;;;;;;;;;17.70;99.90;;;;;;5054632;28;19971;-78
2024/04/07 11:13:59;;;;;;;;;;;17.80;99.90;;;;;;5055192;28;19908;-77
2024/04/07 11:16:25;;;;;;;;;;;17.70;99.90;;;;;;5054305;28;19966;-77
2024/04/07 11:18:51;;;;;;;;;;;17.70;99.90;;;;;;5054804;28;19916;-78
2024/04/07 11:21:17;;;;;;;;;;;17.70;99.90;;;;;;5053199;28;20392;-78
2024/04/07 11:23:43;;;;;;;;;;;17.70;99.90;;;;;;5049912;28;20468;-77
2024/04/07 11:26:09;;;;;;;;;;;17.70;99.90;;;;;;5041400;28;19913;-78
2024/04/07 11:28:37;;;;;;;;;;;17.70;99.90;;;;;;5054989;28;19905;-77
2024/04/07 11:31:03;;;;;;;;;;;17.70;99.90;;;;;;5054058;28;19920;-78
2024/04/07 11:33:29;;;;;;;;;;;17.60;99.90;;;;;;5053433;28;19909;-77
2024/04/07 11:35:54;;;;;;;;;;;17.70;99.90;;;;;;5052930;28;19931;-77
2024/04/07 11:38:20;;;;;;;;;;;17.70;99.90;;;;;;5054925;28;19912;-78
2024/04/07 11:40:50;;;;;;;;;;;17.70;99.90;;;;;;5052976;28;19951;-77
2024/04/07 11:43:16;;;;;;;;;;;17.70;99.90;;;;;;5054637;28;19905;-77
2024/04/07 11:45:42;;;;;;;;;;;17.70;99.90;;;;;;5053627;28;19913;-78
2024/04/07 11:48:08;;;;;;;;;;;17.60;99.90;;;;;;5053905;28;19908;-78
2024/04/07 11:50:34;;;;;;;;;;;17.70;99.90;;;;;;5054092;28;20277;-77
2024/04/07 11:53:00;;;;;;;;;;;17.80;99.90;;;;;;5054547;28;19904;-78
2024/04/07 11:55:25;;;;;;;;;;;17.90;99.90;;;;;;5053986;28;19911;-77
2024/04/07 11:57:51;;;;;;;;;;;17.90;99.90;;;;;;5054140;28;19927;-77
2024/04/07 12:00:17;;;;;;;;;;;18.00;99.90;;;;;;5053544;28;20408;-74
2024/04/07 12:02:44;;;;;;;;;;;18.10;99.90;;;;;;5054050;28;19900;-74
2024/04/07 12:05:11;;;;;;;;;;;18.20;99.90;;;;;;5053769;28;19927;-73
2024/04/07 12:07:36;;;;;;;;;;;18.30;99.90;;;;;;5033915;28;19909;-74
2024/04/07 12:10:02;;;;;;;;;;;18.30;99.90;;;;;;5034412;28;20282;-74
2024/04/07 12:12:29;;;;;;;;;;;18.30;99.90;;;;;;5034012;28;19919;-74
2024/04/07 12:14:55;;;;;;;;;;;18.30;99.90;;;;;;5035032;28;19917;-74
2024/04/07 12:17:20;;;;;;;;;;;18.30;99.90;;;;;;5051158;28;19991;-74
2024/04/07 12:19:46;;;;;;;;;;;18.30;99.90;;;;;;5054054;28;20369;-74
2024/04/07 12:22:16;;;;;;;;;;;18.30;99.90;;;;;;5053305;28;19920;-74
2024/04/07 12:24:42;;;;;;;;;;;18.30;99.90;;;;;;5042233;28;19905;-73
2024/04/07 12:27:08;;;;;;;;;;;18.30;99.90;;;;;;5033583;28;20071;-73
2024/04/07 12:29:34;;;;;;;;;;;18.10;99.90;;;;;;5033899;28;19912;-73
2024/04/07 12:32:00;;;;;;;;;;;18.00;99.90;;;;;;5048466;28;19912;-73
2024/04/07 12:34:26;;;;;;;;;;;18.00;99.90;;;;;;5052879;28;20289;-73
2024/04/07 12:36:52;;;;;;;;;;;17.90;99.90;;;;;;5053121;28;19913;-73
2024/04/07 12:39:18;;;;;;;;;;;17.80;99.90;;;;;;5052396;28;19913;-72
2024/04/07 12:41:45;;;;;;;;;;;17.90;99.90;;;;;;5053245;28;19916;-73
2024/04/07 12:44:11;;;;;;;;;;;18.00;99.90;;;;;;5052940;28;19905;-73
2024/04/07 12:46:37;;;;;;;;;;;18.00;99.90;;;;;;5052271;28;19966;-73
2024/04/07 12:49:03;;;;;;;;;;;17.90;99.90;;;;;;5053509;28;19904;-73
2024/04/07 12:51:32;;;;;;;;;;;17.90;99.90;;;;;;5053018;28;20346;-73
2024/04/07 12:53:58;;;;;;;;;;;17.90;99.90;;;;;;5053471;28;19904;-73
2024/04/07 12:56:24;;;;;;;;;;;18.00;99.90;;;;;;5052480;28;20300;-73
2024/04/07 12:58:50;;;;;;;;;;;17.90;99.90;;;;;;5052544;28;19908;-73
2024/04/07 13:01:16;;;;;;;;;;;17.80;99.90;;;;;;5052204;28;19913;-77
2024/04/07 13:03:41;;;;;;;;;;;17.80;99.90;;;;;;5051607;28;19919;-77
2024/04/07 13:06:07;;;;;;;;;;;17.80;99.90;;;;;;5051371;28;19909;-77
2024/04/07 13:08:33;;;;;;;;;;;17.80;99.90;;;;;;5053040;28;19905;-77
2024/04/07 13:11:01;;;;;;;;;;;17.80;99.90;;;;;;5052429;28;20361;-77
2024/04/07 13:13:27;;;;;;;;;;;17.70;99.90;;;;;;5053175;28;20372;-77
2024/04/07 13:15:55;;;;;;;;;;;17.60;99.90;;;;;;5050418;28;20441;-77
2024/04/07 13:18:25;;;;;;;;;;;17.60;99.90;;;;;;5052827;28;19916;-77
2024/04/07 13:20:51;;;;;;;;;;;17.60;99.90;;;;;;5052207;28;19917;-77
2024/04/07 13:23:17;;;;;;;;;;;17.60;99.90;;;;;;5052377;28;20384;-77
2024/04/07 13:25:43;;;;;;;;;;;17.60;99.90;;;;;;5032550;28;19909;-77
2024/04/07 13:28:09;;;;;;;;;;;17.60;99.90;;;;;;5032851;28;19991;-77
2024/04/07 13:30:38;;;;;;;;;;;17.60;99.90;;;;;;5035253;28;19935;-77
2024/04/07 13:33:04;;;;;;;;;;;17.60;99.90;;;;;;5052914;28;20358;-77
2024/04/07 13:35:30;;;;;;;;;;;17.60;99.90;;;;;;5051887;28;19916;-77
2024/04/07 13:37:56;;;;;;;;;;;17.50;99.90;;;;;;5052713;28;19915;-77
2024/04/07 13:40:22;;;;;;;;;;;17.30;99.90;;;;;;5052137;28;19920;-77
2024/04/07 13:42:48;;;;;;;;;;;17.20;99.90;;;;;;5052734;28;19915;-78
2024/04/07 13:45:16;;;;;;;;;;;17.20;99.90;;;;;;5050024;28;19905;-78
2024/04/07 13:47:43;;;;;;;;;;;17.10;99.90;;;;;;5051748;28;19917;-77
2024/04/07 13:50:09;;;;;;;;;;;16.90;99.90;;;;;;5051202;28;19913;-78
2024/04/07 13:52:35;;;;;;;;;;;17.00;99.90;;;;;;5052273;28;19916;-77
2024/04/07 13:55:04;;;;;;;;;;;17.00;99.90;;;;;;5051357;28;19905;-78
2024/04/07 13:57:34;;;;;;;;;;;17.00;99.90;;;;;;5051897;28;19919;-78
2024/04/07 14:00:00;;;;;;;;;;;17.00;99.90;;;;;;5052017;28;19917;-78
2024/04/07 14:02:26;;;;;;;;;;;17.00;99.90;;;;;;5051486;28;20000;-78
2024/04/07 14:04:52;;;;;;;;;;;16.90;99.90;;;;;;5052371;28;19909;-78
2024/04/07 14:07:18;;;;;;;;;;;16.90;99.90;;;;;;5051600;28;19932;-78
2024/04/07 14:09:43;;;;;;;;;;;16.90;99.90;;;;;;5052444;28;19913;-73
2024/04/07 14:12:09;;;;;;;;;;;16.90;99.90;;;;;;5055254;28;19917;-73
2024/04/07 14:14:36;;;;;;;;;;;16.80;99.90;;;;;;5056128;28;20365;-73